Terminal Aerodrome Forecast
Issued by NWS Shreveport, LA

Home | Current Version | Previous Version | Text Only | Print | Product List | Glossary On
Versions: 1 2 3 4 5 6 7 8 9 10 11 12 13 14
652
FTUS44 KSHV 261148
TAFTXK
TAF
KTXK 261148Z 2612/2712 19006KT P6SM SCT015
      TEMPO 2612/2614 5SM BR
     FM261400 22006KT P6SM FEW015 FEW035
     FM261600 21010KT P6SM SCT045
     FM262000 22010G15KT P6SM SCT050
     FM270000 18005KT P6SM FEW050=

USA.gov is the U.S. government's official web portal to all federal, state and local government web resources and services.